Time;durP1;ratioP1;P1;durP2;ratioP2;P2;SDS_P1;SDS_P2;PMS_P1;PMS_P2;Temp;Humidity;BMP_temperature;BMP_pressure;BME280_temperature;BME280_humidity;BME280_pressure;Samples;Min_cycle;Max_cycle;Signal;HPM_P1;HPM_P2
2023/09/03 00:01:07;;;;;;;2.17;1.42;;;;;;;21.10;54.32;100253.22;7738134;32;39859;-86
2023/09/03 00:05:23;;;;;;;6.50;1.58;;;;;;;21.01;54.73;100244.94;7737975;32;38036;-87
2023/09/03 00:09:39;;;;;;;1.98;1.60;;;;;;;21.17;54.30;100227.75;7737890;32;36948;-87
2023/09/03 00:13:56;;;;;;;3.92;1.50;;;;;;;21.09;54.73;100228.59;7737830;32;39955;-86
2023/09/03 00:18:14;;;;;;;2.33;1.40;;;;;;;21.09;54.95;100226.63;7737620;32;40774;-87
2023/09/03 00:22:30;;;;;;;6.07;1.48;;;;;;;21.22;54.36;100224.81;7758896;32;37947;-87
2023/09/03 00:26:46;;;;;;;1.87;1.70;;;;;;;21.11;54.93;100218.84;7764415;32;37055;-86
2023/09/03 00:31:10;;;;;;;2.03;1.50;;;;;;;20.69;56.28;100226.13;7764574;32;39878;-85
2023/09/03 00:35:26;;;;;;;1.50;1.40;;;;;;;20.72;56.00;100217.16;7764510;32;40128;-86
2023/09/03 00:39:42;;;;;;;4.65;1.80;;;;;;;20.71;56.15;100215.53;7764046;32;38774;-87
2023/09/03 00:43:59;;;;;;;3.67;1.80;;;;;;;20.93;55.39;100204.22;7747136;32;36849;-87
2023/09/03 00:48:23;;;;;;;2.47;1.70;;;;;;;20.87;55.63;100204.72;7737125;32;39870;-87
2023/09/03 00:52:39;;;;;;;5.45;1.52;;;;;;;20.93;55.58;100212.53;7740505;32;40770;-87
2023/09/03 00:56:56;;;;;;;1.95;1.30;;;;;;;20.89;55.79;100206.03;7740084;32;38741;-86
2023/09/03 01:01:13;;;;;;;2.70;1.48;;;;;;;20.91;55.88;100205.69;7738953;32;36660;-86
2023/09/03 01:05:29;;;;;;;4.50;1.98;;;;;;;20.91;56.18;100209.28;7740324;32;39217;-85
2023/09/03 01:09:45;;;;;;;1.83;1.42;;;;;;;21.02;55.95;100206.94;7740071;32;39858;-85
2023/09/03 01:14:20;;;;;;;2.53;1.50;;;;;;;21.23;55.41;100201.50;7739947;32;38757;-86
2023/09/03 01:18:38;;;;;;;2.58;1.30;;;;;;;21.04;55.79;100198.31;7740039;32;36739;-86
2023/09/03 01:23:19;;;;;;;3.28;1.48;;;;;;;20.97;55.92;100190.50;7762399;32;39013;-86
2023/09/03 01:27:58;;;;;;;1.83;1.50;;;;;;;20.88;55.97;100185.00;7766860;32;40732;-86
2023/09/03 01:32:16;;;;;;;2.10;1.30;;;;;;;21.10;55.19;100183.13;7765834;32;37598;-86
2023/09/03 01:36:33;;;;;;;3.37;1.87;;;;;;;21.08;54.87;100174.34;7760464;32;35966;-86
2023/09/03 01:40:57;;;;;;;2.90;1.60;;;;;;;21.23;54.13;100173.78;7738438;32;39506;-84
2023/09/03 01:45:14;;;;;;;1.90;1.37;;;;;;;21.25;53.95;100171.47;7739543;32;40904;-86
2023/09/03 01:49:54;;;;;;;2.67;1.65;;;;;;;21.24;53.93;100185.66;7738313;32;38472;-85
2023/09/03 01:54:47;;;;;;;5.15;2.22;;;;;;;21.03;55.00;100188.38;7738490;32;36618;-85
2023/09/03 01:59:25;;;;;;;3.80;2.00;;;;;;;20.63;57.31;100195.03;7739481;32;40005;-85
2023/09/03 02:03:43;;;;;;;3.05;1.90;;;;;;;20.49;57.52;100197.97;7738574;32;39964;-85
2023/09/03 02:07:59;;;;;;;4.43;1.73;;;;;;;20.63;57.01;100198.59;7738109;32;37935;-85
2023/09/03 02:12:23;;;;;;;1.77;1.45;;;;;;;20.98;55.79;100206.00;7739488;32;36998;-85
2023/09/03 02:16:39;;;;;;;5.07;1.85;;;;;;;20.79;56.25;100201.66;7739323;32;39327;-86
2023/09/03 02:20:56;;;;;;;2.45;1.23;;;;;;;20.65;56.64;100205.78;7739194;32;39963;-85
2023/09/03 02:25:12;;;;;;;2.20;1.37;;;;;;;20.82;56.00;100208.50;7739274;32;38465;-85
2023/09/03 02:29:28;;;;;;;3.80;1.40;;;;;;;20.70;56.41;100208.38;7748420;32;37688;-85
2023/09/03 02:33:44;;;;;;;2.47;1.23;;;;;;;20.72;56.18;100195.00;7766129;32;39318;-85
2023/09/03 02:38:01;;;;;;;2.87;1.67;;;;;;;20.74;56.05;100190.75;7765981;32;40845;-85
2023/09/03 02:42:17;;;;;;;2.37;1.70;;;;;;;20.60;56.82;100204.75;7765724;32;38050;-85
2023/09/03 02:46:33;;;;;;;2.42;1.58;;;;;;;20.66;56.68;100213.72;7764542;32;36962;-85
2023/09/03 02:50:50;;;;;;;2.20;1.48;;;;;;;20.92;55.67;100227.53;7765780;32;39592;-85
2023/09/03 02:55:06;;;;;;;2.50;1.67;;;;;;;20.62;56.31;100227.44;7765812;32;40712;-85
2023/09/03 02:59:22;;;;;;;3.28;1.27;;;;;;;20.67;56.01;100225.66;7765603;32;38809;-85
2023/09/03 03:03:40;;;;;;;3.72;1.55;;;;;;;20.75;55.84;100238.69;7765454;32;36991;-85
2023/09/03 03:07:58;;;;;;;2.55;1.73;;;;;;;20.26;58.08;100333.81;7759867;32;39097;-85
2023/09/03 03:12:14;;;;;;;2.70;1.70;;;;;;;20.04;58.44;100281.31;7737528;32;38995;-85
2023/09/03 03:16:31;;;;;;;5.55;1.70;;;;;;;20.22;57.94;100310.66;7738607;32;37948;-85
2023/09/03 03:20:47;;;;;;;4.05;1.92;;;;;;;20.38;57.70;100290.81;7738487;32;37792;-85
2023/09/03 03:25:04;;;;;;;2.70;1.60;;;;;;;20.71;56.46;100293.09;7738487;32;39258;-85
2023/09/03 03:29:20;;;;;;;1.60;1.40;;;;;;;20.75;56.37;100305.16;7764603;32;41585;-85
2023/09/03 03:33:39;;;;;;;3.97;1.83;;;;;;;20.93;55.60;100295.66;7765506;32;37967;-85
2023/09/03 03:37:55;;;;;;;4.35;1.80;;;;;;;20.69;56.21;100306.47;7765255;32;36854;-85
2023/09/03 03:42:11;;;;;;;3.65;1.52;;;;;;;20.45;57.98;100313.28;7765050;32;40042;-85
2023/09/03 03:46:28;;;;;;;2.03;1.55;;;;;;;20.65;57.13;100322.13;7765236;32;40130;-85
2023/09/03 03:50:44;;;;;;;5.75;1.75;;;;;;;20.53;57.77;100326.31;7765071;32;38687;-86
2023/09/03 03:55:00;;;;;;;3.90;1.60;;;;;;;20.57;58.09;100349.44;7765138;32;36779;-86
2023/09/03 03:59:16;;;;;;;3.72;1.95;;;;;;;20.42;59.01;100361.84;7764916;32;40026;-85
2023/09/03 04:03:33;;;;;;;2.03;1.48;;;;;;;20.24;58.69;100377.59;7764931;32;39957;-86
2023/09/03 04:07:49;;;;;;;2.85;1.30;;;;;;;20.51;57.38;100345.22;7763180;32;38771;-86
2023/09/03 04:12:06;;;;;;;1.30;1.02;;;;;;;20.37;56.98;100305.78;7764892;32;37551;-85
2023/09/03 04:16:22;;;;;;;1.27;1.15;;;;;;;20.51;55.51;100305.63;7764821;32;38983;-85
2023/09/03 04:20:38;;;;;;;3.83;1.30;;;;;;;20.60;54.83;100300.91;7764484;32;39955;-85
2023/09/03 04:24:55;;;;;;;2.47;1.00;;;;;;;20.61;53.42;100291.44;7764008;32;38177;-85
2023/09/03 04:29:11;;;;;;;1.20;0.90;;;;;;;20.80;51.13;100280.06;7763059;32;37601;-85
2023/09/03 04:33:27;;;;;;;1.98;0.77;;;;;;;20.94;51.24;100274.31;7764374;32;39944;-85
2023/09/03 04:37:43;;;;;;;1.65;1.00;;;;;;;20.87;51.28;100272.06;7763761;32;40064;-85
2023/09/03 04:42:00;;;;;;;5.12;1.10;;;;;;;20.80;51.77;100275.31;7759080;32;154561;-85
2023/09/03 04:46:16;;;;;;;2.60;1.02;;;;;;;20.55;52.71;100268.63;7764019;32;37431;-85
2023/09/03 04:50:33;;;;;;;1.15;0.90;;;;;;;20.44;53.17;100267.34;7764138;32;38883;-86
2023/09/03 04:54:49;;;;;;;4.10;0.93;;;;;;;20.73;52.43;100268.63;7763872;32;39883;-86
2023/09/03 04:59:05;;;;;;;4.57;1.23;;;;;;;20.33;53.81;100283.47;7763545;32;38200;-87
2023/09/03 05:03:21;;;;;;;4.07;1.02;;;;;;;20.71;52.87;100276.47;7741470;32;37004;-87
2023/09/03 05:07:38;;;;;;;1.73;0.90;;;;;;;20.68;53.14;100266.03;7736756;32;40016;-87
2023/09/03 05:11:54;;;;;;;4.80;0.75;;;;;;;20.92;52.54;100266.34;7736522;32;39649;-84
2023/09/03 05:16:10;;;;;;;3.50;0.62;;;;;;;20.72;53.14;100262.28;7736336;32;38657;-84
2023/09/03 05:20:26;;;;;;;2.15;0.88;;;;;;;20.66;53.70;100268.34;7736314;32;37034;-86
2023/09/03 05:24:43;;;;;;;1.50;0.90;;;;;;;20.70;54.01;100269.31;7736197;32;39966;-85
2023/09/03 05:28:59;;;;;;;1.67;0.80;;;;;;;20.82;54.50;100269.47;7738558;32;40748;-85
2023/09/03 05:33:15;;;;;;;2.90;0.90;;;;;;;20.88;54.31;100276.44;7756936;32;37984;-86
2023/09/03 05:37:31;;;;;;;2.45;0.80;;;;;;;20.99;53.98;100288.00;7751063;32;37739;-89
2023/09/03 05:41:48;;;;;;;0.85;0.60;;;;;;;21.17;53.83;100295.09;7751220;32;39225;-86
2023/09/03 05:46:07;;;;;;;1.58;0.85;;;;;;;21.29;53.73;100322.16;7752931;32;39851;-84
2023/09/03 05:50:23;;;;;;;4.85;1.10;;;;;;;21.52;53.31;100321.94;7741484;32;38805;-71
2023/09/03 05:54:40;;;;;;;2.85;1.20;;;;;;;21.33;53.91;100342.50;7740722;32;37848;-69
2023/09/03 05:59:02;;;;;;;5.05;1.00;;;;;;;21.58;53.81;100326.16;7775384;32;39211;-73
2023/09/03 06:03:18;;;;;;;1.90;0.80;;;;;;;21.32;53.88;100313.19;7766515;32;39789;-73
2023/09/03 06:07:35;;;;;;;1.37;0.90;;;;;;;21.10;53.72;100305.91;7755194;32;37960;-71
2023/09/03 06:11:51;;;;;;;2.75;0.82;;;;;;;21.41;53.31;100288.19;7765138;32;37720;-71
2023/09/03 06:16:07;;;;;;;2.12;1.00;;;;;;;21.83;52.25;100276.41;7739177;32;39262;-70
2023/09/03 06:20:23;;;;;;;0.70;0.55;;;;;;;21.83;52.14;100287.50;7739180;32;40916;-71
2023/09/03 06:24:39;;;;;;;0.88;0.80;;;;;;;21.90;51.99;100294.16;7762577;32;38760;-72
2023/09/03 06:28:57;;;;;;;2.28;0.95;;;;;;;21.89;51.93;100302.81;7746126;32;37068;-86
2023/09/03 06:33:13;;;;;;;2.60;0.65;;;;;;;21.84;51.95;100300.25;7766181;32;40042;-86
2023/09/03 06:37:30;;;;;;;3.22;1.08;;;;;;;21.93;51.02;100301.00;7766222;32;41225;-86
2023/09/03 06:41:46;;;;;;;2.47;0.90;;;;;;;21.85;51.99;100307.41;7765866;32;38512;-86
2023/09/03 06:46:02;;;;;;;2.45;0.98;;;;;;;21.61;52.68;100319.94;7765944;32;36923;-86
2023/09/03 06:50:19;;;;;;;1.20;1.00;;;;;;;21.66;53.25;100321.69;7765916;32;39580;-85
2023/09/03 06:54:35;;;;;;;1.42;0.73;;;;;;;21.88;52.59;100313.09;7765839;32;40817;-84
2023/09/03 06:58:51;;;;;;;2.12;1.00;;;;;;;21.99;52.36;100310.75;7765546;32;38750;-86
2023/09/03 07:03:08;;;;;;;1.25;0.80;;;;;;;22.04;52.37;100293.06;7765764;32;37565;-87
2023/09/03 07:07:24;;;;;;;1.42;0.80;;;;;;;22.16;52.21;100286.78;7764345;32;38941;-87
2023/09/03 07:11:40;;;;;;;1.37;0.98;;;;;;;22.23;50.89;100306.50;7743110;32;40756;-86
2023/09/03 07:15:56;;;;;;;1.02;0.80;;;;;;;22.52;50.77;100300.09;7765493;32;38023;-86
2023/09/03 07:20:13;;;;;;;1.67;0.88;;;;;;;22.57;50.50;100282.41;7751694;32;36887;-86
2023/09/03 07:24:29;;;;;;;0.95;0.80;;;;;;;22.73;49.65;100275.03;7737660;32;39972;-85
2023/09/03 07:28:45;;;;;;;2.08;0.90;;;;;;;22.79;49.29;100279.25;7737442;32;39975;-85
2023/09/03 07:33:02;;;;;;;1.20;0.90;;;;;;;22.98;48.50;100269.56;7738209;32;38089;-79
2023/09/03 07:37:19;;;;;;;1.80;1.10;;;;;;;22.78;48.84;100277.63;7757110;32;37799;-73
2023/09/03 07:41:37;;;;;;;2.95;0.90;;;;;;;22.98;48.81;100291.81;7771763;32;39977;-87
2023/09/03 07:45:53;;;;;;;5.90;0.82;;;;;;;22.88;49.71;100310.53;7764838;32;40736;-88
2023/09/03 07:50:10;;;;;;;4.18;1.10;;;;;;;22.78;51.06;100297.06;7770328;32;38221;-88
2023/09/03 07:54:26;;;;;;;1.52;0.90;;;;;;;23.46;49.46;100303.38;7777686;32;37382;-88
2023/09/03 07:58:43;;;;;;;3.17;1.00;;;;;;;23.60;48.94;100309.44;7765454;32;39920;-88
2023/09/03 08:02:59;;;;;;;1.40;0.75;;;;;;;23.58;48.19;100320.91;7777818;32;40756;-89
2023/09/03 08:07:16;;;;;;;2.33;0.75;;;;;;;23.58;48.57;100314.53;7765514;32;38793;-88
2023/09/03 08:11:32;;;;;;;4.22;0.80;;;;;;;23.48;49.18;100321.38;7764781;32;36883;-86
2023/09/03 08:15:49;;;;;;;1.67;1.00;;;;;;;23.52;49.39;100322.28;7764664;32;40032;-88
2023/09/03 08:20:05;;;;;;;5.18;1.00;;;;;;;23.18;50.73;100324.34;7764526;32;40713;-88
2023/09/03 08:24:22;;;;;;;1.20;0.90;;;;;;;22.24;53.27;100330.34;7757291;32;37904;-86
2023/09/03 08:28:38;;;;;;;1.67;0.90;;;;;;;22.75;52.32;100322.78;7745066;32;37427;-86
2023/09/03 08:32:54;;;;;;;0.90;0.80;;;;;;;22.34;53.01;100324.44;7774757;32;39876;-87
2023/09/03 08:37:10;;;;;;;2.05;0.80;;;;;;;22.55;52.78;100326.41;7764307;32;40817;-87
2023/09/03 08:41:27;;;;;;;3.70;1.10;;;;;;;22.52;53.83;100325.09;7764068;32;37967;-86
2023/09/03 08:45:56;;;;;;;3.87;0.95;;;;;;;23.01;52.62;100332.84;7764185;32;36690;-86
2023/09/03 08:50:16;;;;;;;2.45;1.30;;;;;;;23.21;52.46;100322.81;7763002;32;39005;-86
2023/09/03 08:54:32;;;;;;;2.10;0.95;;;;;;;23.61;51.80;100320.22;7763964;32;40721;-86
2023/09/03 08:58:48;;;;;;;2.42;1.12;;;;;;;23.52;52.52;100319.50;7763562;32;38785;-88
2023/09/03 09:03:11;;;;;;;1.67;1.02;;;;;;;23.54;52.41;100320.00;7763686;32;36967;-88
2023/09/03 09:07:28;;;;;;;3.92;0.88;;;;;;;23.88;51.95;100339.38;7763600;32;40181;-88
2023/09/03 09:11:50;;;;;;;2.87;0.90;;;;;;;24.08;51.41;100357.12;7756683;32;39652;-88
2023/09/03 09:16:06;;;;;;;0.73;0.73;;;;;;;23.48;52.15;100338.06;7740027;32;38535;-86
2023/09/03 09:20:22;;;;;;;4.72;1.00;;;;;;;23.52;51.60;100354.88;7750965;32;37474;-87
2023/09/03 09:24:45;;;;;;;1.15;1.00;;;;;;;23.24;52.30;100350.75;7766892;32;39265;-85
2023/09/03 09:29:02;;;;;;;;;;;;;;;22.77;54.31;100342.72;7766828;32;40017;-87
2023/09/03 09:33:19;;;;;;;4.93;1.40;;;;;;;23.09;53.60;100345.84;7766872;32;38349;-86
2023/09/03 09:37:40;;;;;;;2.17;1.23;;;;;;;23.19;54.05;100345.41;7766710;32;36617;-86
2023/09/03 09:42:12;;;;;;;1.60;1.20;;;;;;;23.76;52.36;100348.53;7766947;32;39389;-86
2023/09/03 09:46:30;;;;;;;3.15;0.75;;;;;;;23.63;53.14;100351.31;7766594;32;39710;-85
2023/09/03 09:50:48;;;;;;;2.00;1.20;;;;;;;23.53;53.63;100350.94;7756287;32;37646;-86
2023/09/03 09:55:05;;;;;;;1.33;1.08;;;;;;;23.63;53.74;100356.88;7752079;32;35846;-86
2023/09/03 09:59:27;;;;;;;3.47;1.10;;;;;;;23.85;53.49;100356.78;7752315;32;39988;-88
2023/09/03 10:03:48;;;;;;;4.72;1.12;;;;;;;23.77;53.72;100355.72;7750623;32;39908;-85
2023/09/03 10:08:06;;;;;;;9.57;1.53;;;;;;;23.76;54.07;100354.09;7751827;32;38795;-86
2023/09/03 10:12:22;;;;;;;1.42;0.93;;;;;;;23.86;54.07;100350.88;7751571;32;36790;-83
2023/09/03 10:16:38;;;;;;;1.73;1.00;;;;;;;23.75;55.12;100353.28;7752582;32;39027;-84
2023/09/03 10:20:56;;;;;;;2.95;1.50;;;;;;;24.06;53.82;100340.78;7749722;32;39947;-84
2023/09/03 10:25:16;;;;;;;3.87;1.40;;;;;;;23.95;54.41;100329.28;7749760;32;38015;-84
2023/09/03 10:29:34;;;;;;;2.28;1.30;;;;;;;23.51;55.22;100320.69;7738321;32;36739;-84
2023/09/03 10:33:51;;;;;;;2.22;1.50;;;;;;;23.10;56.54;100333.59;7740961;32;38544;-85
2023/09/03 10:38:45;;;;;;;3.35;1.42;;;;;;;23.34;55.68;100329.25;7764134;32;39842;-84
2023/09/03 10:43:22;;;;;;;3.75;1.75;;;;;;;23.47;55.43;100336.44;7754888;32;37893;-83
2023/09/03 10:48:00;;;;;;;3.25;1.40;;;;;;;23.30;56.87;100343.03;7758185;32;36906;-84
2023/09/03 10:52:31;;;;;;;2.28;1.42;;;;;;;23.81;55.42;100339.97;7750893;32;39403;-83
2023/09/03 10:57:05;;;;;;;5.60;1.80;;;;;;;23.78;55.89;100338.69;7760166;32;42404;-85
2023/09/03 11:01:30;;;;;;;5.15;1.80;;;;;;;23.89;54.55;100346.59;7791393;32;38034;-86
2023/09/03 11:06:18;;;;;;;3.33;1.70;;;;;;;24.19;54.78;100344.34;7792903;32;36872;-86
2023/09/03 11:10:36;;;;;;;3.60;1.60;;;;;;;23.92;55.00;100340.31;7767741;32;40100;-84
2023/09/03 11:14:54;;;;;;;3.10;1.62;;;;;;;24.28;54.02;100325.50;7765529;32;39745;-85
2023/09/03 11:19:11;;;;;;;2.00;1.55;;;;;;;23.89;54.26;100335.47;7764038;32;37996;-85
2023/09/03 11:23:29;;;;;;;3.60;1.85;;;;;;;24.23;54.27;100328.53;7765255;32;37750;-86
2023/09/03 11:27:51;;;;;;;5.72;2.00;;;;;;;23.99;54.33;100324.66;7765435;32;39974;-84
2023/09/03 11:32:07;;;;;;;2.47;1.80;;;;;;;24.02;54.41;100319.53;7763078;32;39881;-88
2023/09/03 11:36:26;;;;;;;3.05;2.12;;;;;;;24.21;54.03;100318.94;7763821;32;38771;-88
2023/09/03 11:40:43;;;;;;;2.78;1.83;;;;;;;24.36;53.08;100296.72;7763823;32;36994;-90
2023/09/03 11:45:04;;;;;;;2.47;1.95;;;;;;;24.36;53.71;100310.63;7764857;32;39758;-89
2023/09/03 11:49:24;;;;;;;4.70;2.20;;;;;;;24.97;52.46;100294.84;7734249;32;39623;-90
2023/09/03 11:53:42;;;;;;;5.62;2.40;;;;;;;24.78;52.26;100291.94;7737999;32;38600;-90
2023/09/03 11:58:01;;;;;;;4.43;2.05;;;;;;;24.73;51.93;100293.00;7738064;32;36750;-90
2023/09/03 12:02:18;;;;;;;6.37;2.60;;;;;;;23.86;54.23;100306.31;7736586;32;38986;-90
2023/09/03 12:06:41;;;;;;;4.07;2.22;;;;;;;23.97;54.77;100299.13;7736088;32;40145;-90
2023/09/03 12:10:57;;;;;;;3.45;2.15;;;;;;;24.40;53.32;100282.88;7735639;32;38753;-86
2023/09/03 12:15:21;;;;;;;5.37;2.67;;;;;;;24.53;52.56;100286.44;7734729;32;36868;-85
2023/09/03 12:19:41;;;;;;;9.38;2.70;;;;;;;24.17;53.44;100290.97;7734926;32;39682;-86
2023/09/03 12:23:58;;;;;;;4.00;2.15;;;;;;;24.48;52.83;100278.34;7736256;32;39883;-86
2023/09/03 12:28:15;;;;;;;3.12;2.22;;;;;;;24.40;52.82;100277.31;7736791;32;37680;-85
2023/09/03 12:32:35;;;;;;;4.95;2.58;;;;;;;24.96;52.38;100262.56;7737251;32;37731;-86
2023/09/03 12:36:56;;;;;;;3.83;2.40;;;;;;;24.96;52.07;100281.25;7737491;32;39195;-86
2023/09/03 12:41:13;;;;;;;2.85;2.28;;;;;;;24.67;52.04;100286.06;7737224;32;40879;-86
2023/09/03 12:45:30;;;;;;;4.75;2.28;;;;;;;24.32;53.29;100276.31;7744378;32;38692;-86
2023/09/03 12:49:46;;;;;;;3.53;2.53;;;;;;;24.61;52.99;100271.59;7764193;32;36654;-85
2023/09/03 12:54:04;;;;;;;4.90;2.65;;;;;;;24.24;53.32;100256.94;7764123;32;39357;-85
2023/09/03 12:58:20;;;;;;;3.58;2.65;;;;;;;24.54;53.12;100260.22;7763781;32;40755;-87
2023/09/03 13:02:36;;;;;;;4.15;2.90;;;;;;;24.68;52.35;100260.63;7763626;32;37781;-86
2023/09/03 13:06:53;;;;;;;4.53;2.97;;;;;;;24.39;52.78;100264.56;7750780;32;36880;-84
2023/09/03 13:11:09;;;;;;;4.18;2.97;;;;;;;24.31;53.86;100257.94;7748601;32;39026;-87
2023/09/03 13:15:25;;;;;;;4.45;2.95;;;;;;;24.68;52.64;100259.81;7736383;32;40764;-87
2023/09/03 13:19:42;;;;;;;4.87;3.17;;;;;;;25.05;51.76;100254.81;7736274;32;38138;-75
2023/09/03 13:23:58;;;;;;;6.10;3.47;;;;;;;25.92;48.43;100257.72;7735568;32;37074;-76
2023/09/03 13:28:15;;;;;;;6.22;3.85;;;;;;;25.94;48.19;100251.78;7736242;32;39405;-77
2023/09/03 13:32:31;;;;;;;5.55;3.50;;;;;;;25.84;48.27;100247.59;7735877;32;39889;-77
2023/09/03 13:36:47;;;;;;;6.43;3.40;;;;;;;25.81;48.95;100246.31;7735442;32;37604;-76
2023/09/03 13:41:05;;;;;;;4.43;3.10;;;;;;;25.91;48.19;100253.34;7740466;32;39158;-77
2023/09/03 13:45:22;;;;;;;4.95;3.00;;;;;;;26.04;47.22;100235.31;7762165;32;40105;-76
2023/09/03 13:49:38;;;;;;;3.22;2.72;;;;;;;26.08;45.02;100232.59;7762527;32;40643;-77
2023/09/03 13:53:56;;;;;;;7.12;2.65;;;;;;;26.45;44.08;100220.16;7762156;32;38175;-76
2023/09/03 13:58:12;;;;;;;4.10;2.30;;;;;;;26.90;41.33;100213.84;7759038;32;36789;-78
2023/09/03 14:02:29;;;;;;;3.17;2.30;;;;;;;27.53;40.67;100206.91;7766226;32;40261;-74
2023/09/03 14:06:45;;;;;;;3.15;1.92;;;;;;;27.90;37.83;100203.41;7761465;32;40758;-72
2023/09/03 14:11:01;;;;;;;5.28;2.22;;;;;;;28.10;35.59;100201.31;7760633;32;38702;-73
2023/09/03 14:15:19;;;;;;;5.37;2.35;;;;;;;28.45;34.88;100193.69;7746897;32;37953;-72
2023/09/03 14:19:36;;;;;;;3.90;2.47;;;;;;;28.94;33.59;100186.19;7757129;32;39702;-73
2023/09/03 14:23:53;;;;;;;7.40;1.87;;;;;;;28.65;33.96;100186.72;7746200;32;38647;-73
2023/09/03 14:28:10;;;;;;;2.67;1.95;;;;;;;29.32;31.91;100178.47;7752722;32;38603;-73
2023/09/03 14:32:26;;;;;;;3.40;2.05;;;;;;;28.88;32.26;100185.72;7765913;32;36996;-74
2023/09/03 14:36:43;;;;;;;3.33;1.87;;;;;;;29.18;32.64;100180.00;7765724;32;39228;-84
2023/09/03 14:40:59;;;;;;;2.28;1.80;;;;;;;29.53;30.75;100184.25;7765857;32;40771;-83
2023/09/03 14:45:15;;;;;;;3.30;2.03;;;;;;;29.63;30.11;100187.50;7753413;32;38820;-83
2023/09/03 14:49:42;;;;;;;2.12;1.70;;;;;;;29.65;30.84;100190.72;7738579;32;37008;-85
2023/09/03 14:54:00;;;;;;;2.40;1.37;;;;;;;30.11;29.07;100184.56;7739624;32;38932;-83
2023/09/03 14:58:17;;;;;;;6.50;1.70;;;;;;;30.05;28.13;100177.72;7751218;32;39990;-82
2023/09/03 15:02:33;;;;;;;2.28;1.60;;;;;;;29.73;29.52;100187.56;7746311;32;37965;-82
2023/09/03 15:06:49;;;;;;;3.50;1.50;;;;;;;29.81;29.28;100185.66;7747878;32;37829;-83
2023/09/03 15:11:13;;;;;;;1.98;1.50;;;;;;;29.59;27.88;100193.91;7747664;32;39976;-83
2023/09/03 15:15:30;;;;;;;2.10;1.50;;;;;;;29.43;28.72;100195.44;7765548;32;40026;-83
2023/09/03 15:19:46;;;;;;;5.37;1.60;;;;;;;29.65;27.81;100190.72;7765317;32;38542;-82
2023/09/03 15:24:03;;;;;;;3.35;1.60;;;;;;;29.35;29.01;100198.16;7751173;32;37731;-82
2023/09/03 15:28:22;;;;;;;1.90;1.50;;;;;;;29.31;28.03;100188.12;7738431;32;39872;-82
2023/09/03 15:32:39;;;;;;;3.05;1.75;;;;;;;28.62;29.09;100197.91;7738341;32;40754;-83
2023/09/03 15:36:55;;;;;;;4.60;1.40;;;;;;;28.84;28.89;100194.13;7738197;32;38111;-82
2023/09/03 15:41:12;;;;;;;8.02;1.90;;;;;;;28.85;29.22;100194.91;7753076;32;37102;-82
2023/09/03 15:45:33;;;;;;;1.60;1.48;;;;;;;28.63;29.84;100202.31;7750185;32;38931;-82
2023/09/03 15:49:49;;;;;;;2.22;1.40;;;;;;;28.47;30.19;100208.12;7764873;32;39016;-85
2023/09/03 15:54:06;;;;;;;5.15;2.03;;;;;;;28.01;30.23;100220.41;7751687;32;38033;-87
2023/09/03 15:58:23;;;;;;;3.12;1.50;;;;;;;27.81;30.42;100232.91;7736689;32;36880;-87
2023/09/03 16:02:39;;;;;;;5.68;2.40;;;;;;;27.31;31.37;100236.53;7737638;32;39981;-87
2023/09/03 16:06:55;;;;;;;2.37;1.70;;;;;;;26.93;32.25;100245.84;7753527;32;39930;-87
2023/09/03 16:11:13;;;;;;;5.45;1.98;;;;;;;26.67;32.67;100250.19;7753349;32;37925;-82
2023/09/03 16:15:29;;;;;;;2.45;1.58;;;;;;;26.51;33.32;100246.63;7754202;32;37787;-81
2023/09/03 16:19:45;;;;;;;3.75;2.00;;;;;;;26.10;34.34;100249.78;7745943;32;40032;-83
2023/09/03 16:24:02;;;;;;;4.87;2.10;;;;;;;26.08;34.78;100251.31;7736209;32;40867;-82
2023/09/03 16:28:18;;;;;;;4.20;1.60;;;;;;;25.73;35.46;100254.91;7737475;32;38476;-82
2023/09/03 16:32:34;;;;;;;5.30;1.85;;;;;;;25.50;35.38;100244.41;7759534;32;36983;-83
2023/09/03 16:36:51;;;;;;;9.10;4.22;;;;;;;25.63;35.17;100253.47;7764086;32;39260;-83
2023/09/03 16:41:07;;;;;;;11.45;5.20;;;;;;;25.44;35.76;100257.00;7764115;32;40845;-83
2023/09/03 16:45:24;;;;;;;9.38;2.95;;;;;;;25.10;35.76;100264.91;7763682;32;38135;-84
2023/09/03 16:49:41;;;;;;;4.18;2.20;;;;;;;25.07;36.54;100260.84;7763992;32;36626;-85
2023/09/03 16:53:58;;;;;;;2.62;1.95;;;;;;;24.93;36.46;100249.34;7763966;32;39257;-87
2023/09/03 16:58:14;;;;;;;3.20;1.83;;;;;;;24.74;37.13;100250.81;7763789;32;41247;-86
2023/09/03 17:02:30;;;;;;;3.85;1.92;;;;;;;24.50;37.98;100248.94;7763666;32;38585;-85
2023/09/03 17:06:46;;;;;;;3.25;2.00;;;;;;;24.38;38.15;100247.00;7753006;32;36755;-81
2023/09/03 17:11:03;;;;;;;4.50;2.10;;;;;;;24.38;38.45;100257.34;7751046;32;39281;-83
2023/09/03 17:15:19;;;;;;;4.43;1.90;;;;;;;24.24;38.69;100262.53;7744892;32;40668;-84
2023/09/03 17:19:35;;;;;;;6.70;1.95;;;;;;;24.27;38.91;100267.37;7742246;32;38063;-86
2023/09/03 17:23:51;;;;;;;3.37;1.85;;;;;;;24.21;39.04;100275.16;7745070;32;36917;-85
2023/09/03 17:28:10;;;;;;;3.08;1.87;;;;;;;24.19;39.20;100283.88;7735660;32;38954;-86
2023/09/03 17:32:26;;;;;;;8.55;1.75;;;;;;;24.03;39.77;100293.31;7753910;32;38918;-85
2023/09/03 17:36:42;;;;;;;2.28;1.80;;;;;;;24.05;40.01;100302.94;7738441;32;38530;-85
2023/09/03 17:40:59;;;;;;;5.53;2.08;;;;;;;23.96;40.04;100308.63;7739819;32;36611;-85
2023/09/03 17:45:15;;;;;;;2.83;1.80;;;;;;;23.71;40.45;100312.56;7738561;32;39407;-86
2023/09/03 17:49:31;;;;;;;3.65;1.90;;;;;;;23.78;40.49;100315.56;7745338;32;39970;-85
2023/09/03 17:53:48;;;;;;;5.22;1.95;;;;;;;23.71;40.63;100320.91;7738753;32;38179;-84
2023/09/03 17:58:06;;;;;;;3.08;2.03;;;;;;;23.70;40.42;100327.63;7738339;32;37618;-85
2023/09/03 18:02:23;;;;;;;2.75;1.80;;;;;;;23.38;40.65;100342.09;7739019;32;40282;-85
2023/09/03 18:06:40;;;;;;;6.00;2.10;;;;;;;23.39;40.63;100340.16;7747377;32;40890;-84
2023/09/03 18:10:56;;;;;;;4.28;1.90;;;;;;;23.21;40.70;100350.62;7747894;32;38151;-85
2023/09/03 18:15:12;;;;;;;3.45;2.15;;;;;;;23.18;40.76;100362.44;7755538;32;36660;-85
2023/09/03 18:19:32;;;;;;;16.33;8.23;;;;;;;22.98;40.09;100364.91;7751136;32;39048;-84
2023/09/03 18:23:49;;;;;;;6.55;3.75;;;;;;;22.89;39.87;100361.41;7747044;32;39996;-86
2023/09/03 18:28:06;;;;;;;6.00;3.67;;;;;;;22.75;40.04;100358.91;7754740;32;38010;-85
2023/09/03 18:32:22;;;;;;;4.65;2.55;;;;;;;22.81;40.29;100365.87;7759111;32;37455;-84
2023/09/03 18:36:40;;;;;;;5.45;3.55;;;;;;;22.59;41.47;100372.59;7750621;32;39362;-85
2023/09/03 18:41:00;;;;;;;3.28;2.10;;;;;;;22.64;41.56;100375.16;7764248;32;40791;-84
2023/09/03 18:45:17;;;;;;;3.22;2.20;;;;;;;22.66;41.70;100372.06;7762779;32;38115;-84
2023/09/03 18:49:33;;;;;;;3.40;1.90;;;;;;;22.66;42.11;100380.38;7752370;32;36931;-84
2023/09/03 18:53:49;;;;;;;3.45;2.15;;;;;;;22.72;41.83;100381.00;7737937;32;40215;-83
2023/09/03 18:58:06;;;;;;;2.87;1.98;;;;;;;22.72;42.18;100383.78;7737205;32;40069;-84
2023/09/03 19:02:22;;;;;;;5.03;2.10;;;;;;;22.38;43.42;100383.69;7736712;32;38012;-83
2023/09/03 19:06:40;;;;;;;3.95;1.90;;;;;;;22.34;43.15;100379.19;7737742;32;37016;-84
2023/09/03 19:11:00;;;;;;;4.50;2.00;;;;;;;22.44;43.18;100382.38;7737063;32;39070;-83
2023/09/03 19:15:16;;;;;;;4.93;2.25;;;;;;;22.37;43.43;100384.88;7678561;32;39888;-84
2023/09/03 19:19:32;;;;;;;3.83;2.03;;;;;;;22.13;43.31;100380.72;7684082;32;38037;-84
2023/09/03 19:23:49;;;;;;;7.45;2.30;;;;;;;22.09;43.34;100393.66;7682972;32;37015;-84
2023/09/03 19:28:05;;;;;;;4.28;2.35;;;;;;;22.03;43.75;100391.41;7683022;32;39369;-84
2023/09/03 19:32:22;;;;;;;8.45;4.68;;;;;;;21.83;44.42;100409.63;7684296;32;40002;-84
2023/09/03 19:36:38;;;;;;;5.35;2.97;;;;;;;21.79;44.58;100417.00;7683468;32;37613;-84
2023/09/03 19:40:55;;;;;;;4.22;2.30;;;;;;;21.66;46.40;100414.09;7683823;32;36866;-82
2023/09/03 19:45:11;;;;;;;3.03;2.28;;;;;;;21.80;44.81;100401.94;7683025;32;39032;-79
2023/09/03 19:49:28;;;;;;;4.30;2.25;;;;;;;21.72;44.45;100401.66;7681992;32;40764;-81
2023/09/03 19:53:47;;;;;;;5.97;2.30;;;;;;;21.55;45.26;100407.25;7679824;32;38751;-81
2023/09/03 19:58:04;;;;;;;3.97;1.83;;;;;;;21.70;43.95;100406.72;7676596;32;36572;-81